createdAt,value
2019-04-07T00:01:40.033Z,83.70
2019-04-07T00:04:08.659Z,84.90
2019-04-07T00:06:37.328Z,84.10
2019-04-07T00:09:07.080Z,83.90
2019-04-07T00:11:36.297Z,86.40
2019-04-07T00:14:04.608Z,86.50
2019-04-07T00:16:33.169Z,86.70
2019-04-07T00:19:01.559Z,85.40
2019-04-07T00:21:30.170Z,85.40
2019-04-07T00:23:58.420Z,85.00
2019-04-07T00:26:26.647Z,88.10
2019-04-07T00:28:54.892Z,87.40
2019-04-07T00:31:23.112Z,86.00
2019-04-07T00:33:51.650Z,85.90
2019-04-07T00:36:20.537Z,85.50
2019-04-07T00:38:49.296Z,86.20
2019-04-07T00:41:17.524Z,85.30
2019-04-07T00:43:46.035Z,85.10
2019-04-07T00:46:14.388Z,87.50
2019-04-07T00:48:42.598Z,86.50
2019-04-07T00:51:11.182Z,86.10
2019-04-07T00:53:39.536Z,85.40
2019-04-07T00:56:08.285Z,85.30
2019-04-07T00:58:36.937Z,85.00
2019-04-07T01:01:06.371Z,85.50
2019-04-07T01:03:34.927Z,85.10
2019-04-07T01:06:03.440Z,86.40
2019-04-07T01:08:32.581Z,87.50
2019-04-07T01:11:01.338Z,86.40
2019-04-07T01:13:29.904Z,86.20
2019-04-07T01:15:58.704Z,86.40
2019-04-07T01:18:28.079Z,86.20
2019-04-07T01:20:56.316Z,86.20
2019-04-07T01:23:24.540Z,88.00
2019-04-07T01:25:52.828Z,88.10
2019-04-07T01:28:21.051Z,89.20
2019-04-07T01:30:49.284Z,89.40
2019-04-07T01:33:17.512Z,87.50
2019-04-07T01:35:48.700Z,88.90
2019-04-07T01:38:15.693Z,90.30
2019-04-07T01:40:45.569Z,90.50
2019-04-07T01:43:15.438Z,90.50
2019-04-07T01:45:54.591Z,90.10
2019-04-07T01:48:41.061Z,89.30
2019-04-07T01:51:17.097Z,88.80
2019-04-07T01:53:59.789Z,90.00
2019-04-07T01:56:29.814Z,90.30
2019-04-07T01:58:59.674Z,89.40
2019-04-07T02:01:29.801Z,90.10
2019-04-07T02:04:09.300Z,90.30
2019-04-07T02:06:39.899Z,89.30
2019-04-07T02:09:26.513Z,89.50
2019-04-07T02:12:14.771Z,90.30
2019-04-07T02:14:45.414Z,90.50
2019-04-07T02:17:16.106Z,90.80
2019-04-07T02:19:52.434Z,91.40
2019-04-07T02:22:25.586Z,91.10
2019-04-07T02:24:55.585Z,90.60
2019-04-07T02:27:25.445Z,90.00
2019-04-07T02:30:12.903Z,89.40
2019-04-07T02:32:46.178Z,88.50
2019-04-07T02:35:16.582Z,89.20
2019-04-07T02:37:46.562Z,89.60
2019-04-07T02:40:33.058Z,87.30
2019-04-07T02:43:05.981Z,87.50
2019-04-07T02:45:45.314Z,87.20
2019-04-07T02:48:32.213Z,89.20
2019-04-07T02:51:19.853Z,89.50
2019-04-07T02:54:02.542Z,89.10
2019-04-07T02:56:48.428Z,88.10
2019-04-07T02:59:24.044Z,87.50
2019-04-07T03:01:53.952Z,87.10
2019-04-07T03:04:29.536Z,87.50
2019-04-07T03:07:02.714Z,89.50
2019-04-07T03:09:33.408Z,90.60
2019-04-07T03:12:21.196Z,90.60
2019-04-07T03:15:06.985Z,91.10
2019-04-07T03:17:37.642Z,90.90
2019-04-07T03:20:14.028Z,90.60
2019-04-07T03:22:47.098Z,90.30
2019-04-07T03:25:33.344Z,91.20
2019-04-07T03:28:06.787Z,91.00
2019-04-07T03:30:39.693Z,91.50
2019-04-07T03:33:15.934Z,91.00
2019-04-07T03:35:51.112Z,90.80
2019-04-07T03:38:23.038Z,90.90
2019-04-07T03:40:52.913Z,89.20
2019-04-07T03:43:29.120Z,87.90
2019-04-07T03:46:02.219Z,89.60
2019-04-07T03:48:32.086Z,90.50
2019-04-07T03:51:11.080Z,90.70
2019-04-07T03:53:43.677Z,90.90
2019-04-07T03:56:28.624Z,90.70
2019-04-07T03:59:16.033Z,89.70
2019-04-07T04:01:46.101Z,90.00
2019-04-07T04:04:19.125Z,88.50
2019-04-07T04:06:55.002Z,89.00
2019-04-07T04:09:37.107Z,90.00
2019-04-07T04:12:15.029Z,89.20
2019-04-07T04:14:50.910Z,90.50
2019-04-07T04:17:19.414Z,90.20
2019-04-07T04:19:48.165Z,90.50
2019-04-07T04:22:16.415Z,89.20
2019-04-07T04:24:44.637Z,89.10
2019-04-07T04:27:13.158Z,88.60
2019-04-07T04:29:41.579Z,87.20
2019-04-07T04:32:10.389Z,86.00
2019-04-07T04:34:39.016Z,86.60
2019-04-07T04:37:08.079Z,86.40
2019-04-07T04:39:36.376Z,89.00
2019-04-07T04:42:05.536Z,87.50
2019-04-07T04:44:34.009Z,87.80
2019-04-07T04:47:02.798Z,88.40
2019-04-07T04:49:31.128Z,90.00
2019-04-07T04:52:00.306Z,89.40
2019-04-07T04:54:29.167Z,90.10
2019-04-07T04:56:57.426Z,90.50
2019-04-07T04:59:25.800Z,90.20
2019-04-07T05:01:54.169Z,90.10
2019-04-07T05:04:22.947Z,88.40
2019-04-07T05:06:51.593Z,88.50
2019-04-07T05:09:20.109Z,90.00
2019-04-07T05:11:48.532Z,90.40
2019-04-07T05:14:16.843Z,89.50
2019-04-07T05:16:45.077Z,89.10
2019-04-07T05:19:14.176Z,88.90
2019-04-07T05:21:42.644Z,91.00
2019-04-07T05:24:11.484Z,91.70
2019-04-07T05:26:40.480Z,91.10
2019-04-07T05:29:09.344Z,91.40
2019-04-07T05:31:37.982Z,91.00
2019-04-07T05:34:07.386Z,91.80
2019-04-07T05:36:35.776Z,92.10
2019-04-07T05:39:06.520Z,91.80
2019-04-07T05:41:34.809Z,91.00
2019-04-07T05:44:03.518Z,91.60
2019-04-07T05:46:32.334Z,91.70
2019-04-07T05:49:00.665Z,91.30
2019-04-07T05:51:30.159Z,91.10
2019-04-07T05:53:59.307Z,91.60
2019-04-07T05:56:28.439Z,91.60
2019-04-07T05:58:57.117Z,91.60
2019-04-07T06:01:25.934Z,91.60
2019-04-07T06:03:54.547Z,90.90
2019-04-07T06:06:22.928Z,90.40
2019-04-07T06:08:51.810Z,90.80
2019-04-07T06:11:20.441Z,90.80
2019-04-07T06:13:48.759Z,91.30
2019-04-07T06:16:18.551Z,91.30
2019-04-07T06:18:47.698Z,90.80
2019-04-07T06:21:16.288Z,91.10
2019-04-07T06:24:05.131Z,89.90
2019-04-07T06:26:34.160Z,89.20
2019-04-07T06:29:02.637Z,90.10
2019-04-07T06:31:32.156Z,89.30
2019-04-07T06:34:00.896Z,90.90
2019-04-07T06:36:29.671Z,91.60
2019-04-07T06:38:58.184Z,92.20
2019-04-07T06:41:29.508Z,91.70
2019-04-07T06:44:08.844Z,91.30
2019-04-07T06:46:37.896Z,90.40
2019-04-07T06:49:12.038Z,89.90
2019-04-07T06:51:42.390Z,90.50
2019-04-07T06:54:28.860Z,90.40
2019-04-07T06:56:59.089Z,90.50
2019-04-07T06:59:29.312Z,89.60
2019-04-07T07:02:15.692Z,89.00
2019-04-07T07:05:04.080Z,88.40
2019-04-07T07:07:34.647Z,88.60
2019-04-07T07:10:10.709Z,88.80
2019-04-07T07:12:59.907Z,89.00
2019-04-07T07:15:28.266Z,89.80
2019-04-07T07:17:59.301Z,90.00
2019-04-07T07:20:30.434Z,88.40
2019-04-07T07:23:00.782Z,88.50
2019-04-07T07:25:31.290Z,89.40
2019-04-07T07:27:59.049Z,89.70
2019-04-07T07:30:28.246Z,90.10
2019-04-07T07:32:56.636Z,89.60
2019-04-07T07:35:25.570Z,90.00
2019-04-07T07:37:58.150Z,88.20
2019-04-07T07:40:24.209Z,86.90
2019-04-07T07:42:56.061Z,88.30
2019-04-07T07:45:22.916Z,88.00
2019-04-07T07:47:53.943Z,88.20
2019-04-07T07:50:21.232Z,88.50
2019-04-07T07:52:53.141Z,87.50
2019-04-07T07:55:19.790Z,87.10
2019-04-07T07:57:48.201Z,85.30
2019-04-07T08:00:16.969Z,85.80
2019-04-07T08:02:49.016Z,83.30
2019-04-07T08:05:16.006Z,81.40
2019-04-07T08:07:46.026Z,81.40
2019-04-07T08:10:14.704Z,80.90
2019-04-07T08:12:43.701Z,80.50
2019-04-07T08:15:12.676Z,77.70
2019-04-07T08:17:41.032Z,76.90
2019-04-07T08:20:11.396Z,75.30
2019-04-07T08:22:43.175Z,74.20
2019-04-07T08:25:09.738Z,74.00
2019-04-07T08:27:38.679Z,73.70
2019-04-07T08:30:11.798Z,74.10
2019-04-07T08:32:37.581Z,71.70
2019-04-07T08:35:06.898Z,72.20
2019-04-07T08:37:36.395Z,71.40
2019-04-07T08:40:07.664Z,72.50
2019-04-07T08:42:36.979Z,71.70
2019-04-07T08:45:06.767Z,73.90
2019-04-07T08:47:35.598Z,76.00
2019-04-07T08:50:06.216Z,76.60
2019-04-07T08:52:34.582Z,78.20
2019-04-07T08:55:06.027Z,76.80
2019-04-07T08:57:35.804Z,77.50
2019-04-07T09:00:07.064Z,77.00
2019-04-07T09:02:35.871Z,76.70
2019-04-07T09:05:06.599Z,70.80
2019-04-07T09:07:35.162Z,70.90
2019-04-07T09:10:04.889Z,72.30
2019-04-07T09:12:33.904Z,71.70
2019-04-07T09:15:04.364Z,72.10
2019-04-07T09:17:43.387Z,70.10
2019-04-07T09:20:12.092Z,66.70
2019-04-07T09:22:51.640Z,65.30
2019-04-07T09:25:20.341Z,63.70
2019-04-07T09:28:06.500Z,61.40
2019-04-07T09:30:43.223Z,61.60
2019-04-07T09:33:19.208Z,60.80
2019-04-07T09:36:04.496Z,61.80
2019-04-07T09:38:52.521Z,60.80
2019-04-07T09:41:41.677Z,58.50
2019-04-07T09:44:26.553Z,57.60
2019-04-07T09:46:56.528Z,57.40
2019-04-07T09:49:43.296Z,56.80
2019-04-07T09:52:14.895Z,57.60
2019-04-07T09:54:53.820Z,57.90
2019-04-07T09:57:39.800Z,55.20
2019-04-07T10:00:10.211Z,55.90
2019-04-07T10:02:45.983Z,55.10
2019-04-07T10:05:27.720Z,52.70
2019-04-07T10:08:16.747Z,53.30
2019-04-07T10:10:49.381Z,49.50
2019-04-07T10:13:19.377Z,53.50
2019-04-07T10:15:58.573Z,52.70
2019-04-07T10:18:28.579Z,52.90
2019-04-07T10:21:01.596Z,51.10
2019-04-07T10:23:34.187Z,52.20
2019-04-07T10:26:20.314Z,50.70
2019-04-07T10:29:02.826Z,52.30
2019-04-07T10:31:41.552Z,51.30
2019-04-07T10:34:28.393Z,48.90
2019-04-07T10:37:10.530Z,47.10
2019-04-07T10:39:49.463Z,47.90
2019-04-07T10:42:25.159Z,49.10
2019-04-07T10:48:12.176Z,50.90
2019-04-07T10:50:45.502Z,50.20
2019-04-07T10:53:15.999Z,49.90
2019-04-07T10:56:02.277Z,49.70
2019-04-07T10:58:35.129Z,47.50
2019-04-07T11:01:11.146Z,47.70
2019-04-07T11:03:54.733Z,45.40
2019-04-07T11:06:24.837Z,46.50
2019-04-07T11:08:57.850Z,44.90
2019-04-07T11:11:30.462Z,45.00
2019-04-07T11:14:06.846Z,46.10
2019-04-07T11:16:36.753Z,45.00
2019-04-07T11:19:06.644Z,46.30
2019-04-07T11:21:42.480Z,47.40
2019-04-07T11:24:31.294Z,47.90
2019-04-07T11:27:03.316Z,45.70
2019-04-07T11:29:33.738Z,45.80
2019-04-07T11:32:17.576Z,46.60
2019-04-07T11:35:04.899Z,45.80
2019-04-07T11:37:51.772Z,50.20
2019-04-07T11:40:42.085Z,48.10
2019-04-07T11:43:11.824Z,46.20
2019-04-07T11:45:56.453Z,46.70
2019-04-07T11:48:16.029Z,48.70
2019-04-07T11:50:46.138Z,47.90
2019-04-07T11:53:27.933Z,45.20
2019-04-07T11:55:57.796Z,47.70
2019-04-07T11:58:33.205Z,45.40
2019-04-07T12:01:02.502Z,45.00
2019-04-07T12:03:41.818Z,43.80
2019-04-07T12:06:18.111Z,46.80
2019-04-07T12:08:57.092Z,48.00
2019-04-07T12:11:36.305Z,48.00
2019-04-07T12:14:19.098Z,46.90
2019-04-07T12:16:57.935Z,46.00
2019-04-07T12:19:30.576Z,45.70
2019-04-07T12:22:05.656Z,46.50
2019-04-07T12:24:57.479Z,47.60
2019-04-07T12:27:27.858Z,46.30
2019-04-07T12:29:58.179Z,45.50
2019-04-07T12:32:41.429Z,45.70
2019-04-07T12:35:21.412Z,47.70
2019-04-07T12:37:52.072Z,46.50
2019-04-07T12:40:38.889Z,47.20
2019-04-07T12:43:25.013Z,47.60
2019-04-07T12:45:54.893Z,47.40
2019-04-07T12:48:31.952Z,47.40
2019-04-07T12:51:08.432Z,48.40
2019-04-07T12:53:55.076Z,48.10
2019-04-07T12:56:42.109Z,47.60
2019-04-07T12:59:14.306Z,49.60
2019-04-07T13:01:48.465Z,49.60
2019-04-07T13:04:30.379Z,50.50
2019-04-07T13:07:00.229Z,51.20
2019-04-07T13:09:46.807Z,48.80
2019-04-07T13:12:27.218Z,48.80
2019-04-07T13:15:14.528Z,47.20
2019-04-07T13:17:55.215Z,47.80
2019-04-07T13:20:28.711Z,48.70
2019-04-07T13:22:58.878Z,48.10
2019-04-07T13:25:31.168Z,49.30
2019-04-07T13:28:08.142Z,49.00
2019-04-07T13:30:38.922Z,49.50
2019-04-07T13:33:20.250Z,48.90
2019-04-07T13:35:53.480Z,48.50
2019-04-07T13:38:26.644Z,50.00
2019-04-07T13:40:57.490Z,48.80
2019-04-07T13:43:30.534Z,49.40
2019-04-07T13:46:04.904Z,47.10
2019-04-07T13:48:35.503Z,50.30
2019-04-07T13:51:11.439Z,50.70
2019-04-07T13:53:44.381Z,50.10
2019-04-07T13:56:23.070Z,50.50
2019-04-07T13:59:08.159Z,49.50
2019-04-07T14:01:42.362Z,51.30
2019-04-07T14:04:15.646Z,50.20
2019-04-07T14:06:54.444Z,50.60
2019-04-07T14:09:40.609Z,50.60
2019-04-07T14:12:16.189Z,50.80
2019-04-07T14:14:59.057Z,51.10
2019-04-07T14:17:45.525Z,49.20
2019-04-07T14:20:24.706Z,48.20
2019-04-07T14:22:55.508Z,47.10
2019-04-07T14:25:34.654Z,47.50
2019-04-07T14:28:07.859Z,46.80
2019-04-07T14:30:38.323Z,46.40
2019-04-07T14:33:13.993Z,46.70
2019-04-07T14:35:44.218Z,47.80
2019-04-07T14:38:17.134Z,46.60
2019-04-07T14:40:47.073Z,44.90
2019-04-07T14:43:29.899Z,44.20
2019-04-07T14:46:15.164Z,45.00
2019-04-07T14:48:54.432Z,44.10
2019-04-07T14:51:25.110Z,45.10
2019-04-07T14:54:13.666Z,46.30
2019-04-07T14:56:49.412Z,47.20
2019-04-07T14:59:24.320Z,48.20
2019-04-07T15:01:53.671Z,48.30
2019-04-07T15:04:23.629Z,49.20
2019-04-07T15:07:11.752Z,49.30
2019-04-07T15:09:41.629Z,49.90
2019-04-07T15:12:17.617Z,49.50
2019-04-07T15:14:41.669Z,49.20
2019-04-07T15:17:10.953Z,48.90
2019-04-07T15:19:39.826Z,50.60
2019-04-07T15:22:08.191Z,50.30
2019-04-07T15:24:37.636Z,50.40
2019-04-07T15:27:07.722Z,50.10
2019-04-07T15:29:39.444Z,50.00
2019-04-07T15:32:07.217Z,51.20
2019-04-07T15:34:35.689Z,51.70
2019-04-07T15:37:05.539Z,50.20
2019-04-07T15:39:33.768Z,50.60
2019-04-07T15:42:02.165Z,50.40
2019-04-07T15:44:30.695Z,51.50
2019-04-07T15:46:58.923Z,52.60
2019-04-07T15:49:28.312Z,51.80
2019-04-07T15:51:57.291Z,52.00
2019-04-07T15:54:25.669Z,52.40
2019-04-07T15:56:53.989Z,52.00
2019-04-07T15:59:22.709Z,53.10
2019-04-07T16:01:51.328Z,52.40
2019-04-07T16:04:25.159Z,52.70
2019-04-07T16:06:50.663Z,52.70
2019-04-07T16:09:33.266Z,52.50
2019-04-07T16:12:08.841Z,53.00
2019-04-07T16:14:37.464Z,53.70
2019-04-07T16:17:09.239Z,52.90
2019-04-07T16:19:40.961Z,53.20
2019-04-07T16:22:06.101Z,52.70
2019-04-07T16:24:34.769Z,53.50
2019-04-07T16:27:05.493Z,53.20
2019-04-07T16:29:33.064Z,53.40
2019-04-07T16:32:01.917Z,53.20
2019-04-07T16:34:30.508Z,52.70
2019-04-07T16:37:00.300Z,53.20
2019-04-07T16:39:29.151Z,53.50
2019-04-07T16:41:58.711Z,52.60
2019-04-07T16:44:27.755Z,53.50
2019-04-07T16:46:57.998Z,53.60
2019-04-07T16:49:26.260Z,54.00
2019-04-07T16:51:58.321Z,53.40
2019-04-07T16:54:24.558Z,53.30
2019-04-07T16:56:56.157Z,54.10
2019-04-07T16:59:22.790Z,54.80
2019-04-07T17:01:51.021Z,53.20
2019-04-07T17:04:20.123Z,53.60
2019-04-07T17:06:59.474Z,54.60
2019-04-07T17:09:23.104Z,53.40
2019-04-07T17:11:49.273Z,53.60
2019-04-07T17:14:18.422Z,54.00
2019-04-07T17:16:47.236Z,53.70
2019-04-07T17:19:16.275Z,53.90
2019-04-07T17:21:45.003Z,54.80
2019-04-07T17:24:14.185Z,54.90
2019-04-07T17:26:43.425Z,54.50
2019-04-07T17:29:11.941Z,55.90
2019-04-07T17:31:41.110Z,55.30
2019-04-07T17:34:11.512Z,55.40
2019-04-07T17:36:39.433Z,55.00
2019-04-07T17:39:15.606Z,55.30
2019-04-07T17:41:48.352Z,55.30
2019-04-07T17:44:32.073Z,56.80
2019-04-07T17:47:14.259Z,54.90
2019-04-07T17:50:02.387Z,57.40
2019-04-07T17:52:35.826Z,62.10
2019-04-07T17:55:26.914Z,63.50
2019-04-07T17:57:56.524Z,64.90
2019-04-07T18:00:38.208Z,65.90
2019-04-07T18:03:10.630Z,66.50
2019-04-07T18:05:43.188Z,67.50
2019-04-07T18:08:29.525Z,67.50
2019-04-07T18:11:15.812Z,68.20
2019-04-07T18:13:50.216Z,68.70
2019-04-07T18:16:36.896Z,69.20
2019-04-07T18:19:10.882Z,69.20
2019-04-07T18:21:47.834Z,69.70
2019-04-07T18:24:21.420Z,71.00
2019-04-07T18:26:54.770Z,70.80
2019-04-07T18:29:42.932Z,73.20
2019-04-07T18:32:16.532Z,74.20
2019-04-07T18:34:49.628Z,74.00
2019-04-07T18:37:38.813Z,75.60
2019-04-07T18:40:21.081Z,77.40
2019-04-07T18:43:08.162Z,77.60
2019-04-07T18:45:54.729Z,78.20
2019-04-07T18:48:36.877Z,77.60
2019-04-07T18:51:12.589Z,78.20
2019-04-07T18:53:44.025Z,77.30
2019-04-07T18:56:14.148Z,79.20
2019-04-07T18:59:00.620Z,80.00
2019-04-07T19:01:46.996Z,80.50
2019-04-07T19:04:35.186Z,80.70
2019-04-07T19:07:05.056Z,82.00
2019-04-07T19:10:05.019Z,83.00
2019-04-07T19:12:34.332Z,82.70
2019-04-07T19:15:09.026Z,81.50
2019-04-07T19:17:48.118Z,80.40
2019-04-07T19:20:27.480Z,79.20
2019-04-07T19:22:58.097Z,80.40
2019-04-07T19:25:47.827Z,79.60
2019-04-07T19:28:17.833Z,81.00
2019-04-07T19:31:00.139Z,80.30
2019-04-07T19:33:47.389Z,80.50
2019-04-07T19:36:26.140Z,81.00
2019-04-07T19:39:02.691Z,81.70
2019-04-07T19:41:49.013Z,82.30
2019-04-07T19:44:34.801Z,80.20
2019-04-07T19:47:05.328Z,80.70
2019-04-07T19:49:41.220Z,81.40
2019-04-07T19:52:14.129Z,81.50
2019-04-07T19:54:48.586Z,82.60
2019-04-07T19:57:25.754Z,81.30
2019-04-07T20:00:02.592Z,80.50
2019-04-07T20:02:38.704Z,80.30
2019-04-07T20:05:07.988Z,79.30
2019-04-07T20:07:41.869Z,78.80
2019-04-07T20:10:28.211Z,80.90
2019-04-07T20:12:58.380Z,79.50
2019-04-07T20:15:35.940Z,78.20
2019-04-07T20:18:05.335Z,78.80
2019-04-07T20:20:34.597Z,78.50
2019-04-07T20:23:23.030Z,79.30
2019-04-07T20:25:55.868Z,78.40
2019-04-07T20:28:43.214Z,77.90
2019-04-07T20:31:23.716Z,77.70
2019-04-07T20:33:53.298Z,77.60
2019-04-07T20:36:26.857Z,78.00
2019-04-07T20:39:15.960Z,77.90
2019-04-07T20:41:58.816Z,78.00
2019-04-07T20:44:33.027Z,79.50
2019-04-07T20:47:01.575Z,78.40
2019-04-07T20:49:33.219Z,78.50
2019-04-07T20:52:15.777Z,78.60
2019-04-07T20:55:04.830Z,79.30
2019-04-07T20:57:40.672Z,78.20
2019-04-07T21:00:10.612Z,78.10
2019-04-07T21:03:10.753Z,78.30
2019-04-07T21:05:44.276Z,79.50
2019-04-07T21:08:30.270Z,79.60
2019-04-07T21:11:08.076Z,79.20
2019-04-07T21:13:44.233Z,78.00
2019-04-07T21:16:29.989Z,78.60
2019-04-07T21:19:09.849Z,79.90
2019-04-07T21:21:49.283Z,80.10
2019-04-07T21:24:35.632Z,81.90
2019-04-07T21:27:05.493Z,82.80
2019-04-07T21:29:35.363Z,83.00
2019-04-07T21:32:12.131Z,83.00
2019-04-07T21:35:01.382Z,84.80
2019-04-07T21:37:40.809Z,85.50
2019-04-07T21:40:10.825Z,86.30
2019-04-07T21:42:43.392Z,87.70
2019-04-07T21:45:38.275Z,86.20
2019-04-07T21:48:09.571Z,86.10
2019-04-07T21:50:41.958Z,85.60
2019-04-07T21:53:12.105Z,85.70
2019-04-07T21:55:57.444Z,85.30
2019-04-07T21:58:33.628Z,86.60
2019-04-07T22:01:06.557Z,87.00
2019-04-07T22:03:37.921Z,86.50
2019-04-07T22:06:07.789Z,87.60
2019-04-07T22:08:43.455Z,87.10
2019-04-07T22:11:11.302Z,90.00
2019-04-07T22:13:40.679Z,89.70
2019-04-07T22:16:09.982Z,88.60
2019-04-07T22:18:39.396Z,87.60
2019-04-07T22:21:08.295Z,89.30
2019-04-07T22:23:36.533Z,89.60
2019-04-07T22:26:09.176Z,88.30
2019-04-07T22:28:35.217Z,86.40
2019-04-07T22:31:03.808Z,87.30
2019-04-07T22:33:32.785Z,86.20
2019-04-07T22:36:01.948Z,84.90
2019-04-07T22:38:30.189Z,85.60
2019-04-07T22:40:58.664Z,86.70
2019-04-07T22:43:26.894Z,87.60
2019-04-07T22:46:07.164Z,88.60
2019-04-07T22:48:26.781Z,88.50
2019-04-07T22:50:55.895Z,87.30
2019-04-07T22:53:28.500Z,86.20
2019-04-07T22:55:55.199Z,85.40
2019-04-07T22:58:24.212Z,86.10
2019-04-07T23:00:52.538Z,85.10
2019-04-07T23:03:20.859Z,86.80
2019-04-07T23:05:49.245Z,87.50
2019-04-07T23:08:17.458Z,87.00
2019-04-07T23:10:45.780Z,88.00
2019-04-07T23:13:14.013Z,88.60
2019-04-07T23:15:45.596Z,89.10
2019-04-07T23:18:12.188Z,89.40
2019-04-07T23:20:40.439Z,90.50
2019-04-07T23:23:08.900Z,90.10
2019-04-07T23:25:37.217Z,89.10
2019-04-07T23:28:06.255Z,89.80
2019-04-07T23:30:35.237Z,90.10
2019-04-07T23:33:04.192Z,89.50
2019-04-07T23:35:32.969Z,89.20
2019-04-07T23:38:01.656Z,90.50
2019-04-07T23:40:30.123Z,90.70
2019-04-07T23:42:58.640Z,90.90
2019-04-07T23:45:27.384Z,91.20
2019-04-07T23:47:55.868Z,91.70
2019-04-07T23:50:25.151Z,91.40
2019-04-07T23:52:54.050Z,91.50
2019-04-07T23:55:22.740Z,91.30
2019-04-07T23:57:50.960Z,92.30
